createdAt,value
2022-09-28T00:01:21.913Z,3.05
2022-09-28T00:03:52.023Z,1.98
2022-09-28T00:06:22.556Z,2.63
2022-09-28T00:08:50.057Z,2.28
2022-09-28T00:11:18.786Z,1.90
2022-09-28T00:13:49.454Z,2.42
2022-09-28T00:16:19.619Z,2.20
2022-09-28T00:18:46.925Z,2.25
2022-09-28T00:21:17.951Z,2.05
2022-09-28T00:24:04.270Z,1.83
2022-09-28T00:26:33.953Z,2.38
2022-09-28T00:29:02.418Z,2.10
2022-09-28T00:31:32.906Z,2.08
2022-09-28T00:34:01.939Z,1.52
2022-09-28T00:36:31.768Z,2.10
2022-09-28T00:39:04.627Z,1.65
2022-09-28T00:41:31.804Z,1.80
2022-09-28T00:44:26.639Z,2.30
2022-09-28T00:47:25.815Z,1.75
2022-09-28T00:50:07.109Z,1.90
2022-09-28T00:52:40.713Z,1.80
2022-09-28T00:55:13.969Z,2.00
2022-09-28T00:57:46.940Z,1.95
2022-09-28T01:00:14.321Z,1.90
2022-09-28T01:02:41.887Z,1.65
2022-09-28T01:05:10.424Z,1.80
2022-09-28T01:07:38.140Z,1.92
2022-09-28T01:10:05.886Z,2.35
2022-09-28T01:12:32.973Z,2.17
2022-09-28T01:15:00.516Z,2.10
2022-09-28T01:17:46.001Z,1.75
2022-09-28T01:20:33.740Z,1.90
2022-09-28T01:23:30.248Z,1.95
2022-09-28T01:26:25.183Z,2.00
2022-09-28T01:29:05.743Z,2.03
2022-09-28T01:31:36.537Z,1.95
2022-09-28T01:34:16.203Z,2.03
2022-09-28T01:36:53.473Z,1.60
2022-09-28T01:39:33.949Z,1.83
2022-09-28T01:42:11.076Z,2.00
2022-09-28T01:44:44.111Z,1.55
2022-09-28T01:47:14.441Z,1.65
2022-09-28T01:49:50.877Z,1.65
2022-09-28T01:55:44.805Z,1.70
2022-09-28T01:58:25.557Z,1.83
2022-09-28T02:01:01.323Z,2.33
2022-09-28T02:03:49.203Z,2.00
2022-09-28T02:06:26.569Z,1.90
2022-09-28T02:09:04.449Z,1.85
2022-09-28T02:11:45.321Z,2.05
2022-09-28T02:14:16.251Z,1.63
2022-09-28T02:16:51.040Z,2.30
2022-09-28T02:19:27.917Z,1.90
2022-09-28T02:22:08.777Z,2.17
2022-09-28T02:25:07.925Z,2.20
2022-09-28T02:28:06.561Z,1.73
2022-09-28T02:30:36.785Z,2.35
2022-09-28T02:33:13.145Z,1.88
2022-09-28T02:35:42.805Z,2.30
2022-09-28T02:38:14.807Z,2.05
2022-09-28T02:40:46.918Z,2.15
2022-09-28T02:43:31.805Z,2.30
2022-09-28T02:46:26.701Z,2.63
2022-09-28T02:49:36.148Z,2.42
2022-09-28T02:52:24.917Z,3.10
2022-09-28T02:55:19.775Z,2.67
2022-09-28T02:57:56.281Z,2.90
2022-09-28T03:00:24.267Z,3.08
2022-09-28T03:03:12.487Z,2.85
2022-09-28T03:06:02.093Z,3.17
2022-09-28T03:08:53.281Z,2.95
2022-09-28T03:11:28.371Z,2.80
2022-09-28T03:13:56.396Z,3.30
2022-09-28T03:16:32.140Z,2.75
2022-09-28T03:19:04.422Z,3.30
2022-09-28T03:21:31.456Z,3.38
2022-09-28T03:23:58.318Z,3.17
2022-09-28T03:26:25.749Z,3.55
2022-09-28T03:28:53.446Z,3.33
2022-09-28T03:31:23.838Z,3.20
2022-09-28T03:33:51.852Z,3.65
2022-09-28T03:36:18.857Z,3.40
2022-09-28T03:38:45.982Z,3.15
2022-09-28T03:41:13.104Z,3.72
2022-09-28T03:43:42.436Z,3.58
2022-09-28T03:46:10.168Z,3.60
2022-09-28T03:48:42.368Z,3.63
2022-09-28T03:51:11.974Z,3.60
2022-09-28T03:53:40.162Z,3.75
2022-09-28T03:56:17.475Z,3.83
2022-09-28T03:58:44.421Z,3.42
2022-09-28T04:01:17.549Z,4.82
2022-09-28T04:03:47.708Z,4.05
2022-09-28T04:06:15.406Z,4.53
2022-09-28T04:08:43.248Z,4.35
2022-09-28T04:11:10.638Z,4.47
2022-09-28T04:13:37.541Z,4.28
2022-09-28T04:16:09.605Z,3.92
2022-09-28T04:18:36.742Z,4.05
2022-09-28T04:21:13.663Z,3.97
2022-09-28T04:23:44.670Z,3.85
2022-09-28T04:26:30.501Z,4.10
2022-09-28T04:29:15.682Z,4.05
2022-09-28T04:31:52.297Z,3.78
2022-09-28T04:34:22.906Z,3.80
2022-09-28T04:36:50.422Z,3.85
2022-09-28T04:39:19.351Z,3.85
2022-09-28T04:41:52.627Z,4.45
2022-09-28T04:44:20.264Z,3.75
2022-09-28T04:46:49.242Z,4.47
2022-09-28T04:49:39.216Z,4.25
2022-09-28T04:52:18.712Z,3.58
2022-09-28T04:54:48.996Z,4.35
2022-09-28T04:57:17.521Z,4.60
2022-09-28T04:59:44.850Z,3.97
2022-09-28T05:02:14.036Z,4.18
2022-09-28T05:04:59.986Z,4.68
2022-09-28T05:07:46.206Z,4.63
2022-09-28T05:10:13.383Z,5.28
2022-09-28T05:12:40.833Z,4.53
2022-09-28T05:15:08.121Z,4.53
2022-09-28T05:17:35.065Z,4.47
2022-09-28T05:20:25.938Z,4.65
2022-09-28T05:22:53.394Z,4.65
2022-09-28T05:25:20.197Z,4.43
2022-09-28T05:27:57.275Z,5.32
2022-09-28T05:30:50.197Z,4.60
2022-09-28T05:33:25.111Z,3.92
2022-09-28T05:36:11.017Z,4.60
2022-09-28T05:38:38.337Z,4.07
2022-09-28T05:41:06.694Z,4.50
2022-09-28T05:43:34.141Z,3.72
2022-09-28T05:46:04.614Z,3.97
2022-09-28T05:48:32.133Z,4.28
2022-09-28T05:50:59.590Z,4.43
2022-09-28T05:53:27.135Z,4.68
2022-09-28T05:56:01.279Z,4.43
2022-09-28T06:01:24.453Z,3.95
2022-09-28T06:03:51.482Z,3.70
2022-09-28T06:06:19.152Z,3.75
2022-09-28T06:08:48.497Z,3.95
2022-09-28T06:11:32.308Z,3.38
2022-09-28T06:14:05.097Z,4.32
2022-09-28T06:16:33.179Z,4.15
2022-09-28T06:19:18.830Z,3.92
2022-09-28T06:22:04.085Z,4.50
2022-09-28T06:24:42.824Z,4.32
2022-09-28T06:27:11.402Z,3.97
2022-09-28T06:29:43.259Z,4.13
2022-09-28T06:32:12.710Z,4.43
2022-09-28T06:34:42.044Z,3.83
2022-09-28T06:37:09.479Z,4.35
2022-09-28T06:39:37.182Z,4.30
2022-09-28T06:42:05.877Z,4.68
2022-09-28T06:44:51.996Z,3.90
2022-09-28T06:47:43.603Z,3.97
2022-09-28T06:50:17.135Z,4.85
2022-09-28T06:53:11.058Z,4.03
2022-09-28T06:56:04.871Z,4.68
2022-09-28T06:58:32.252Z,5.03
2022-09-28T07:01:00.400Z,4.38
2022-09-28T07:03:29.677Z,5.00
2022-09-28T07:06:21.177Z,3.95
2022-09-28T07:09:30.255Z,3.80
2022-09-28T07:12:13.738Z,4.10
2022-09-28T07:14:56.307Z,3.70
2022-09-28T07:17:25.534Z,4.50
2022-09-28T07:19:54.110Z,4.32
2022-09-28T07:22:36.980Z,4.20
2022-09-28T07:25:09.771Z,3.92
2022-09-28T07:27:42.906Z,4.28
2022-09-28T07:30:34.942Z,4.25
2022-09-28T07:33:08.124Z,3.65
2022-09-28T07:36:09.511Z,3.88
2022-09-28T07:38:38.386Z,4.38
2022-09-28T07:41:33.312Z,4.30
2022-09-28T07:44:10.608Z,3.85
2022-09-28T07:49:24.689Z,4.43
2022-09-28T07:52:35.184Z,4.20
2022-09-28T07:55:19.612Z,3.40
2022-09-28T07:58:05.297Z,4.50
2022-09-28T08:00:50.868Z,3.83
2022-09-28T08:03:24.867Z,4.43
2022-09-28T08:06:05.187Z,3.60
2022-09-28T08:09:55.751Z,4.78
2022-09-28T08:12:01.513Z,4.40
2022-09-28T08:14:42.982Z,4.28
2022-09-28T08:17:57.908Z,4.90
2022-09-28T08:21:04.876Z,4.13
2022-09-28T08:23:37.358Z,4.45
2022-09-28T08:28:58.558Z,4.22
2022-09-28T08:32:01.258Z,3.80
2022-09-28T08:34:53.591Z,3.58
2022-09-28T08:37:37.596Z,3.85
2022-09-28T08:41:08.475Z,4.03
2022-09-28T08:44:16.274Z,4.22
2022-09-28T08:47:46.661Z,4.00
2022-09-28T08:50:29.429Z,3.58
2022-09-28T08:54:05.804Z,3.38
2022-09-28T08:56:55.852Z,3.05
2022-09-28T08:59:59.757Z,3.42
2022-09-28T09:02:34.307Z,3.28
2022-09-28T09:06:04.596Z,3.47
2022-09-28T09:09:50.857Z,2.83
2022-09-28T09:12:37.474Z,2.80
2022-09-28T09:15:21.540Z,2.92
2022-09-28T09:18:20.058Z,2.85
2022-09-28T09:22:29.472Z,2.97
2022-09-28T09:25:19.357Z,2.63
2022-09-28T09:28:43.881Z,2.40
2022-09-28T09:31:50.219Z,2.30
2022-09-28T09:34:46.625Z,1.90
2022-09-28T09:38:11.146Z,2.10
2022-09-28T09:41:24.381Z,2.00
2022-09-28T09:44:44.925Z,1.90
2022-09-28T09:47:41.114Z,1.40
2022-09-28T09:50:30.518Z,1.60
2022-09-28T09:53:37.665Z,1.27
2022-09-28T09:56:28.134Z,1.05
2022-09-28T09:59:24.062Z,1.00
2022-09-28T10:02:23.854Z,0.90
2022-09-28T10:05:24.504Z,1.10
2022-09-28T10:11:18.682Z,1.10
2022-09-28T10:13:50.543Z,0.88
2022-09-28T10:16:37.277Z,0.88
2022-09-28T10:19:13.221Z,0.95
2022-09-28T10:22:02.545Z,0.85
2022-09-28T10:24:45.964Z,1.02
2022-09-28T10:27:20.515Z,1.13
2022-09-28T10:30:24.761Z,1.15
2022-09-28T10:32:55.472Z,0.85
2022-09-28T10:35:30.933Z,0.70
2022-09-28T10:38:18.427Z,0.93
2022-09-28T10:40:59.195Z,1.25
2022-09-28T10:44:06.846Z,0.88
2022-09-28T10:46:42.153Z,0.55
2022-09-28T10:49:18.197Z,0.88
2022-09-28T10:52:38.009Z,1.17
2022-09-28T10:55:32.987Z,0.95
2022-09-28T10:58:01.031Z,0.90
2022-09-28T11:03:26.568Z,1.13
2022-09-28T11:06:05.749Z,1.23
2022-09-28T11:08:42.812Z,1.00
2022-09-28T11:11:16.718Z,1.45
2022-09-28T11:13:57.389Z,1.10
2022-09-28T11:16:34.960Z,1.48
2022-09-28T11:19:29.740Z,1.02
2022-09-28T11:21:56.635Z,1.17
2022-09-28T11:24:34.178Z,1.00
2022-09-28T11:27:04.209Z,1.10
2022-09-28T11:29:44.214Z,1.17
2022-09-28T11:32:41.331Z,1.40
2022-09-28T11:35:50.416Z,1.30
2022-09-28T11:38:56.192Z,1.05
2022-09-28T11:42:40.499Z,1.00
2022-09-28T11:45:34.486Z,1.03
2022-09-28T11:48:05.964Z,1.33
2022-09-28T11:50:47.446Z,0.82
2022-09-28T11:53:30.852Z,1.20
2022-09-28T11:56:19.224Z,1.10
2022-09-28T11:58:53.934Z,1.00
2022-09-28T12:01:43.908Z,0.88
2022-09-28T12:04:33.885Z,1.65
2022-09-28T12:07:08.357Z,0.70
2022-09-28T12:12:36.032Z,0.80
2022-09-28T12:15:28.007Z,0.55
2022-09-28T12:18:06.487Z,0.60
2022-09-28T12:20:42.785Z,0.60
2022-09-28T12:23:29.960Z,1.15
2022-09-28T12:26:02.981Z,1.15
2022-09-28T12:28:48.891Z,0.82
2022-09-28T12:31:38.277Z,0.77
2022-09-28T12:34:05.718Z,0.70
2022-09-28T12:36:58.159Z,0.75
2022-09-28T12:40:08.311Z,0.70
2022-09-28T12:42:52.785Z,1.00
2022-09-28T12:45:53.099Z,0.93
2022-09-28T12:49:47.348Z,0.85
2022-09-28T12:51:55.221Z,1.10
2022-09-28T12:58:08.401Z,0.75
2022-09-28T13:00:48.281Z,1.02
2022-09-28T13:04:12.831Z,0.57
2022-09-28T13:07:05.805Z,0.95
2022-09-28T13:10:18.601Z,0.95
2022-09-28T13:13:06.343Z,0.65
2022-09-28T13:16:02.446Z,0.85
2022-09-28T13:19:05.622Z,0.75
2022-09-28T13:22:15.754Z,0.82
2022-09-28T13:24:44.966Z,0.70
2022-09-28T13:27:26.335Z,0.82
2022-09-28T13:29:55.709Z,0.75
2022-09-28T13:32:27.080Z,0.70
2022-09-28T13:34:54.785Z,0.77
2022-09-28T13:37:25.567Z,0.80
2022-09-28T13:39:59.643Z,0.80
2022-09-28T13:42:51.238Z,0.60
2022-09-28T13:45:20.689Z,0.77
2022-09-28T13:48:13.580Z,0.60
2022-09-28T13:51:29.793Z,0.70
2022-09-28T13:54:12.910Z,0.70
2022-09-28T13:56:51.326Z,2.65
2022-09-28T13:59:29.803Z,0.65
2022-09-28T14:01:59.825Z,0.60
2022-09-28T14:05:01.961Z,0.70
2022-09-28T14:07:35.035Z,0.60
2022-09-28T14:10:10.791Z,0.57
2022-09-28T14:12:37.619Z,0.60
2022-09-28T14:15:30.494Z,0.60
2022-09-28T14:18:33.663Z,0.70
2022-09-28T14:21:12.771Z,0.50
2022-09-28T14:23:58.986Z,0.70
2022-09-28T14:27:09.723Z,0.50
2022-09-28T14:29:38.372Z,0.43
2022-09-28T14:32:23.543Z,0.95
2022-09-28T14:38:18.751Z,0.60
2022-09-28T14:41:09.941Z,0.80
2022-09-28T14:43:45.926Z,0.52
2022-09-28T14:46:22.006Z,0.70
2022-09-28T14:48:55.058Z,0.70
2022-09-28T14:51:31.596Z,1.35
2022-09-28T14:54:26.986Z,1.48
2022-09-28T14:56:54.181Z,0.93
2022-09-28T14:59:36.322Z,0.60
2022-09-28T15:02:15.404Z,0.60
2022-09-28T15:05:22.651Z,0.77
2022-09-28T15:07:52.875Z,0.98
2022-09-28T15:10:39.094Z,1.00
2022-09-28T15:13:27.890Z,0.90
2022-09-28T15:16:06.581Z,0.77
2022-09-28T15:19:04.734Z,0.90
2022-09-28T15:21:38.995Z,0.52
2022-09-28T15:24:55.236Z,2.13
2022-09-28T15:27:24.617Z,2.95
2022-09-28T15:30:11.471Z,1.40
2022-09-28T15:32:38.441Z,0.82
2022-09-28T15:35:40.998Z,0.90
2022-09-28T15:38:17.189Z,1.00
2022-09-28T15:40:44.834Z,1.00
2022-09-28T15:43:27.101Z,1.27
2022-09-28T15:46:18.766Z,0.82
2022-09-28T15:48:55.420Z,1.13
2022-09-28T15:54:04.602Z,1.20
2022-09-28T15:56:31.701Z,1.20
2022-09-28T15:59:32.893Z,1.15
2022-09-28T16:02:18.950Z,1.20
2022-09-28T16:04:53.018Z,0.80
2022-09-28T16:07:45.709Z,1.15
2022-09-28T16:10:12.449Z,0.90
2022-09-28T16:12:58.764Z,1.50
2022-09-28T16:15:36.800Z,1.50
2022-09-28T16:18:18.029Z,1.73
2022-09-28T16:20:50.024Z,1.80
2022-09-28T16:23:45.171Z,1.30
2022-09-28T16:26:37.490Z,1.80
2022-09-28T16:29:34.218Z,1.13
2022-09-28T16:32:56.520Z,1.20
2022-09-28T16:35:36.097Z,1.20
2022-09-28T16:38:11.067Z,1.35
2022-09-28T16:40:44.160Z,1.40
2022-09-28T16:43:26.882Z,1.42
2022-09-28T16:46:00.991Z,3.15
2022-09-28T16:48:30.994Z,2.28
2022-09-28T16:50:58.535Z,1.48
2022-09-28T16:53:44.869Z,1.60
2022-09-28T16:56:13.060Z,1.90
2022-09-28T16:58:40.252Z,2.42
2022-09-28T17:01:09.527Z,2.10
2022-09-28T17:03:36.875Z,2.80
2022-09-28T17:06:08.395Z,2.40
2022-09-28T17:08:35.663Z,1.65
2022-09-28T17:11:14.935Z,1.27
2022-09-28T17:13:45.134Z,1.25
2022-09-28T17:16:32.563Z,1.27
2022-09-28T17:19:29.814Z,1.50
2022-09-28T17:21:56.730Z,1.42
2022-09-28T17:24:23.619Z,1.65
2022-09-28T17:26:52.085Z,1.52
2022-09-28T17:29:19.544Z,2.80
2022-09-28T17:31:47.551Z,2.22
2022-09-28T17:34:16.306Z,2.35
2022-09-28T17:36:45.190Z,2.05
2022-09-28T17:39:21.937Z,1.88
2022-09-28T17:41:52.479Z,1.80
2022-09-28T17:44:20.663Z,1.98
2022-09-28T17:46:49.815Z,2.17
2022-09-28T17:49:17.269Z,2.60
2022-09-28T17:51:44.319Z,2.28
2022-09-28T17:54:12.967Z,2.33
2022-09-28T17:56:40.085Z,2.78
2022-09-28T17:59:11.389Z,2.22
2022-09-28T18:01:40.054Z,2.67
2022-09-28T18:04:13.198Z,2.30
2022-09-28T18:06:46.081Z,2.45
2022-09-28T18:09:15.323Z,2.60
2022-09-28T18:11:45.403Z,2.67
2022-09-28T18:14:12.817Z,2.75
2022-09-28T18:16:39.744Z,2.90
2022-09-28T18:19:07.054Z,2.95
2022-09-28T18:21:35.338Z,2.88
2022-09-28T18:24:03.948Z,3.60
2022-09-28T18:26:30.812Z,3.13
2022-09-28T18:28:57.952Z,3.42
2022-09-28T18:31:24.925Z,2.85
2022-09-28T18:34:02.003Z,3.40
2022-09-28T18:36:35.606Z,4.00
2022-09-28T18:39:03.896Z,3.47
2022-09-28T18:41:30.940Z,3.83
2022-09-28T18:44:00.770Z,4.13
2022-09-28T18:46:29.676Z,3.40
2022-09-28T18:48:57.054Z,3.92
2022-09-28T18:51:24.312Z,3.75
2022-09-28T18:53:51.717Z,3.15
2022-09-28T18:56:19.659Z,3.58
2022-09-28T18:58:52.641Z,3.63
2022-09-28T19:01:30.389Z,3.72
2022-09-28T19:04:06.826Z,3.75
2022-09-28T19:06:35.194Z,5.23
2022-09-28T19:09:02.542Z,4.20
2022-09-28T19:11:29.571Z,4.03
2022-09-28T19:13:56.745Z,4.20
2022-09-28T19:16:28.512Z,3.90
2022-09-28T19:19:01.476Z,3.75
2022-09-28T19:21:29.241Z,3.78
2022-09-28T19:23:56.063Z,3.88
2022-09-28T19:26:28.380Z,4.47
2022-09-28T19:28:59.301Z,4.35
2022-09-28T19:31:27.272Z,4.05
2022-09-28T19:33:54.137Z,4.18
2022-09-28T19:36:23.883Z,5.43
2022-09-28T19:38:53.058Z,5.57
2022-09-28T19:41:43.925Z,5.43
2022-09-28T19:44:16.749Z,5.53
2022-09-28T19:46:43.977Z,6.57
2022-09-28T19:49:14.815Z,7.25
2022-09-28T19:51:51.663Z,6.50
2022-09-28T19:57:07.886Z,6.20
2022-09-28T19:59:38.841Z,5.78
2022-09-28T20:02:08.374Z,6.47
2022-09-28T20:04:37.795Z,6.68
2022-09-28T20:07:05.121Z,5.50
2022-09-28T20:09:32.917Z,5.13
2022-09-28T20:11:59.859Z,6.03
2022-09-28T20:14:32.046Z,5.78
2022-09-28T20:17:03.757Z,6.38
2022-09-28T20:19:30.749Z,6.05
2022-09-28T20:21:59.525Z,6.60
2022-09-28T20:24:28.661Z,6.32
2022-09-28T20:26:56.037Z,7.25
2022-09-28T20:29:24.212Z,19.17
2022-09-28T20:31:51.944Z,17.77
2022-09-28T20:34:19.360Z,16.75
2022-09-28T20:36:46.296Z,17.70
2022-09-28T20:39:13.479Z,13.85
2022-09-28T20:41:41.097Z,10.20
2022-09-28T20:44:09.032Z,17.25
2022-09-28T20:46:36.774Z,12.23
2022-09-28T20:49:04.978Z,13.98
2022-09-28T20:51:32.321Z,12.82
2022-09-28T20:53:59.688Z,10.77
2022-09-28T20:56:30.549Z,11.77
2022-09-28T20:58:57.681Z,12.18
2022-09-28T21:01:27.934Z,11.80
2022-09-28T21:03:59.558Z,10.82
2022-09-28T21:06:38.299Z,10.13
2022-09-28T21:09:07.728Z,7.68
2022-09-28T21:11:35.612Z,6.57
2022-09-28T21:14:06.253Z,6.35
2022-09-28T21:16:34.872Z,5.40
2022-09-28T21:19:02.161Z,5.78
2022-09-28T21:21:29.041Z,6.15
2022-09-28T21:23:57.631Z,5.90
2022-09-28T21:26:28.800Z,5.40
2022-09-28T21:29:02.423Z,5.25
2022-09-28T21:31:33.313Z,4.88
2022-09-28T21:34:00.749Z,4.30
2022-09-28T21:36:28.026Z,4.80
2022-09-28T21:38:55.467Z,4.28
2022-09-28T21:41:23.673Z,4.57
2022-09-28T21:43:50.766Z,4.10
2022-09-28T21:46:17.787Z,4.95
2022-09-28T21:48:45.509Z,4.10
2022-09-28T21:51:15.996Z,4.30
2022-09-28T21:53:44.448Z,3.65
2022-09-28T21:56:12.849Z,4.00
2022-09-28T21:58:40.698Z,3.47
2022-09-28T22:01:15.630Z,3.65
2022-09-28T22:03:46.662Z,3.55
2022-09-28T22:06:15.296Z,3.00
2022-09-28T22:08:42.297Z,3.45
2022-09-28T22:11:13.499Z,3.60
2022-09-28T22:13:48.121Z,3.63
2022-09-28T22:16:18.269Z,3.30
2022-09-28T22:18:46.096Z,3.75
2022-09-28T22:21:15.287Z,3.80
2022-09-28T22:23:42.891Z,3.28
2022-09-28T22:26:25.673Z,3.47
2022-09-28T22:28:58.805Z,3.35
2022-09-28T22:31:30.045Z,3.67
2022-09-28T22:33:57.684Z,2.97
2022-09-28T22:36:25.772Z,3.30
2022-09-28T22:38:54.837Z,3.20
2022-09-28T22:41:21.727Z,3.08
2022-09-28T22:43:51.055Z,3.33
2022-09-28T22:46:25.305Z,3.70
2022-09-28T22:48:58.208Z,3.25
2022-09-28T22:51:27.705Z,3.60
2022-09-28T22:53:54.945Z,3.33
2022-09-28T22:56:21.833Z,3.33
2022-09-28T22:58:48.623Z,3.65
2022-09-28T23:01:21.100Z,3.58
2022-09-28T23:03:50.179Z,3.20
2022-09-28T23:06:19.824Z,3.75
2022-09-28T23:08:48.000Z,3.85
2022-09-28T23:11:15.751Z,3.15
2022-09-28T23:13:43.256Z,4.28
2022-09-28T23:16:15.012Z,4.15
2022-09-28T23:18:42.336Z,4.03
2022-09-28T23:21:17.664Z,3.55
2022-09-28T23:23:46.562Z,3.83
2022-09-28T23:26:21.584Z,3.88
2022-09-28T23:28:48.596Z,3.22
2022-09-28T23:31:28.437Z,3.58
2022-09-28T23:34:13.432Z,3.70
2022-09-28T23:36:40.905Z,3.83
2022-09-28T23:39:09.729Z,4.05
2022-09-28T23:41:37.156Z,3.65
2022-09-28T23:44:04.083Z,3.78
2022-09-28T23:46:30.948Z,3.85
2022-09-28T23:48:58.090Z,3.72
2022-09-28T23:51:25.022Z,4.07
2022-09-28T23:53:51.895Z,5.03
2022-09-28T23:56:19.011Z,4.30
2022-09-28T23:58:45.990Z,4.25
